Time;durP1;ratioP1;P1;durP2;ratioP2;P2;SDS_P1;SDS_P2;PMS_P1;PMS_P2;Temp;Humidity;BMP_temperature;BMP_pressure;BME280_temperature;BME280_humidity;BME280_pressure;Samples;Min_cycle;Max_cycle;Signal;HPM_P1;HPM_P2
2022/08/15 00:01:33;;;;;;;32.80;20.13;;;18.90;99.90;;;;;;10410218;28;20059;-83
2022/08/15 00:06:36;;;;;;;;;;;18.90;99.90;;;;;;10421234;28;20473;-83
2022/08/15 00:11:41;;;;;;;33.42;20.90;;;19.00;99.90;;;;;;10412485;28;19963;-83
2022/08/15 00:16:43;;;;;;;27.63;18.17;;;18.90;99.90;;;;;;10408532;28;20035;-83
2022/08/15 00:21:50;;;;;;;28.17;18.10;;;18.80;99.90;;;;;;10408711;28;20531;-83
2022/08/15 00:26:51;;;;;;;29.85;17.80;;;18.60;99.90;;;;;;10411461;28;20036;-83
2022/08/15 00:31:55;;;;;;;29.25;18.52;;;18.40;99.90;;;;;;10408943;28;20087;-83
2022/08/15 00:36:57;;;;;;;31.00;18.00;;;18.30;99.90;;;;;;10412711;28;20025;-83
2022/08/15 00:42:00;;;;;;;28.40;18.95;;;18.20;99.90;;;;;;10405244;28;20413;-83
2022/08/15 00:47:07;;;;;;;32.60;18.00;;;18.20;99.90;;;;;;10407093;28;20497;-83
2022/08/15 00:52:16;;;;;;;31.73;20.15;;;18.20;99.90;;;;;;10389700;28;20052;-83
2022/08/15 00:57:25;;;;;;;30.27;20.33;;;18.10;99.90;;;;;;10401769;28;20533;-83
2022/08/15 01:02:33;;;;;;;26.20;17.67;;;18.10;99.90;;;;;;10408099;28;20029;-83
2022/08/15 01:07:33;;;;;;;32.17;18.15;;;18.10;99.90;;;;;;10377359;28;20116;-83
2022/08/15 01:12:37;;;;;;;24.73;16.02;;;17.90;99.90;;;;;;10399132;28;20049;-83
2022/08/15 01:17:38;;;;;;;25.92;16.77;;;17.70;99.90;;;;;;10406781;28;20499;-83
2022/08/15 01:23:00;;;;;;;29.77;17.88;;;17.50;99.90;;;;;;10407614;28;20056;-83
2022/08/15 01:28:06;;;;;;;31.95;19.85;;;17.50;99.90;;;;;;10401913;28;20044;-83
2022/08/15 01:33:07;;;;;;;36.90;21.50;;;17.40;99.90;;;;;;10401288;28;20041;-83
2022/08/15 01:38:35;;;;;;;37.95;21.35;;;17.40;99.90;;;;;;10397685;28;20041;-83
2022/08/15 01:43:41;;;;;;;44.30;23.67;;;17.40;99.90;;;;;;10399929;28;20629;-83
2022/08/15 01:48:47;;;;;;;39.60;24.55;;;17.40;99.90;;;;;;10385948;28;20037;-83
2022/08/15 01:54:02;;;;;;;41.75;24.77;;;17.40;99.90;;;;;;10403393;28;20053;-83
2022/08/15 01:59:05;;;;;;;40.23;23.40;;;17.50;99.90;;;;;;10399005;28;20044;-83
2022/08/15 02:04:06;;;;;;;39.15;23.83;;;17.50;99.90;;;;;;10401990;28;20029;-83
2022/08/15 02:09:12;;;;;;;52.80;29.30;;;17.60;99.90;;;;;;10405753;28;20053;-83
2022/08/15 02:14:13;;;;;;;56.17;30.20;;;17.60;99.90;;;;;;10378814;28;20045;-83
2022/08/15 02:19:14;;;;;;;51.63;27.35;;;17.70;99.90;;;;;;10382858;28;20021;-82
2022/08/15 02:24:20;;;;;;;67.97;29.83;;;17.70;99.90;;;;;;10383596;28;20078;-83
2022/08/15 02:29:25;;;;;;;55.70;30.30;;;17.80;99.90;;;;;;10399140;28;20061;-83
2022/08/15 02:34:26;;;;;;;50.53;27.52;;;17.90;99.90;;;;;;10403866;28;20099;-83
2022/08/15 02:39:27;;;;;;;47.30;24.50;;;17.90;99.90;;;;;;10404506;28;20053;-83
2022/08/15 02:44:28;;;;;;;50.15;26.02;;;17.90;99.90;;;;;;10403752;28;20116;-83
2022/08/15 02:49:29;;;;;;;50.75;27.25;;;17.80;99.90;;;;;;10402312;28;20385;-83
2022/08/15 02:54:30;;;;;;;38.50;23.08;;;17.70;99.90;;;;;;10385570;28;20056;-82
2022/08/15 02:59:30;;;;;;;54.92;28.42;;;17.60;99.90;;;;;;10394211;28;20029;-82
2022/08/15 03:04:34;;;;;;;70.47;31.10;;;17.60;99.90;;;;;;10398057;28;20028;-83
2022/08/15 03:09:35;;;;;;;61.28;29.48;;;17.50;99.90;;;;;;10404401;28;20057;-82
2022/08/15 03:14:36;;;;;;;46.92;25.98;;;17.40;99.90;;;;;;10402656;28;20042;-83
2022/08/15 03:19:37;;;;;;;42.80;25.35;;;17.40;99.90;;;;;;10404774;28;20051;-82
2022/08/15 03:24:42;;;;;;;37.88;22.63;;;17.40;99.90;;;;;;10402603;28;20447;-83
2022/08/15 03:29:42;;;;;;;66.18;34.78;;;17.30;99.90;;;;;;10402867;28;20021;-82
2022/08/15 03:34:43;;;;;;;60.22;33.08;;;17.30;99.90;;;;;;10383212;28;20021;-83
2022/08/15 03:39:44;;;;;;;63.83;33.92;;;17.50;99.90;;;;;;10391490;28;20060;-83
2022/08/15 03:44:45;;;;;;;60.35;29.50;;;17.60;99.90;;;;;;10401998;28;20461;-83
2022/08/15 03:49:45;;;;;;;64.97;32.03;;;17.60;99.90;;;;;;10404209;28;20030;-83
2022/08/15 03:54:46;;;;;;;65.18;34.17;;;17.60;99.90;;;;;;10403025;28;20588;-82
2022/08/15 03:59:46;;;;;;;54.13;31.60;;;17.60;99.90;;;;;;10377780;28;20128;-85
2022/08/15 04:04:47;;;;;;;64.28;34.75;;;17.60;99.90;;;;;;10373510;28;20044;-82
2022/08/15 04:09:48;;;;;;;65.85;34.75;;;17.70;99.90;;;;;;10399625;28;20080;-83
2022/08/15 04:14:48;;;;;;;47.20;27.48;;;17.70;99.90;;;;;;10394208;28;20022;-83
2022/08/15 04:19:50;;;;;;;46.95;27.05;;;17.70;99.90;;;;;;10407155;28;20540;-83
2022/08/15 04:24:51;;;;;;;40.38;24.27;;;17.60;99.90;;;;;;10406019;28;20029;-83
2022/08/15 04:29:51;;;;;;;48.28;26.48;;;17.60;99.90;;;;;;10410156;28;20029;-83
2022/08/15 04:34:53;;;;;;;39.53;24.38;;;17.60;99.90;;;;;;10392731;28;20034;-83
2022/08/15 04:39:54;;;;;;;39.13;23.50;;;17.60;99.90;;;;;;10410672;28;20493;-83
2022/08/15 04:44:56;;;;;;;41.20;23.83;;;17.70;99.90;;;;;;10410080;28;20449;-83
2022/08/15 04:49:56;;;;;;;39.63;23.50;;;17.70;99.90;;;;;;10385346;28;20040;-83
2022/08/15 04:54:58;;;;;;;42.55;25.38;;;17.60;99.90;;;;;;10410701;28;20038;-83
2022/08/15 04:59:58;;;;;;;40.42;24.25;;;17.50;99.90;;;;;;10409616;28;20480;-83
2022/08/15 05:04:59;;;;;;;40.50;24.30;;;17.60;99.90;;;;;;10408746;28;20036;-83
2022/08/15 05:10:00;;;;;;;37.80;24.15;;;17.70;99.90;;;;;;10409643;28;20057;-83
2022/08/15 05:15:03;;;;;;;41.33;24.05;;;17.80;99.90;;;;;;10406875;28;20072;-83
2022/08/15 05:20:06;;;;;;;34.47;21.05;;;18.00;99.90;;;;;;10365876;28;20065;-83
2022/08/15 05:25:07;;;;;;;32.53;22.15;;;18.20;99.90;;;;;;10383773;28;20025;-83
2022/08/15 05:30:08;;;;;;;31.95;20.33;;;18.40;99.90;;;;;;10405339;28;20493;-85
2022/08/15 05:35:10;;;;;;;36.72;21.77;;;18.60;99.90;;;;;;10406169;28;20027;-83
2022/08/15 05:40:11;;;;;;;30.90;20.85;;;18.80;99.90;;;;;;10401411;28;20018;-83
2022/08/15 05:45:35;;;;;;;29.35;20.95;;;19.00;99.90;;;;;;10401546;28;20088;-83
2022/08/15 05:51:08;;;;;;;34.03;22.08;;;19.20;99.90;;;;;;10403149;28;20037;-83
2022/08/15 05:56:27;;;;;;;30.02;18.88;;;19.40;99.90;;;;;;10400441;28;20032;-83
2022/08/15 06:01:45;;;;;;;33.85;21.70;;;19.70;99.90;;;;;;10397375;28;20452;-84
2022/08/15 06:06:48;;;;;;;28.48;18.77;;;19.90;99.90;;;;;;10397909;28;20060;-82
2022/08/15 06:11:53;;;;;;;33.05;20.88;;;20.10;99.90;;;;;;10402518;28;20049;-83
2022/08/15 06:16:58;;;;;;;44.08;23.40;;;20.30;99.90;;;;;;10404563;28;20647;-82
2022/08/15 06:22:27;;;;;;;36.20;22.23;;;20.50;99.90;;;;;;10400383;28;20021;-82
2022/08/15 06:27:54;;;;;;;35.33;22.13;;;20.70;99.90;;;;;;10388032;28;20450;-85
2022/08/15 06:33:21;;;;;;;36.63;22.23;;;20.90;99.90;;;;;;10391361;28;20048;-83
2022/08/15 06:38:35;;;;;;;30.05;19.73;;;21.10;99.90;;;;;;10354462;28;20029;-83
2022/08/15 06:43:36;;;;;;;33.95;19.42;;;21.30;99.90;;;;;;10389059;28;20040;-82
2022/08/15 06:48:40;;;;;;;36.13;21.42;;;21.50;99.90;;;;;;10391788;28;20777;-83
2022/08/15 06:53:55;;;;;;;29.40;18.70;;;21.60;99.90;;;;;;10399112;28;20081;-85
2022/08/15 06:59:01;;;;;;;30.92;18.42;;;21.80;99.90;;;;;;10399052;28;20037;-85
2022/08/15 07:04:33;;;;;;;32.25;19.38;;;22.00;99.90;;;;;;10372501;28;20136;-85
2022/08/15 07:09:52;;;;;;;33.28;19.75;;;22.20;99.90;;;;;;10399121;28;20056;-86
2022/08/15 07:14:59;;;;;;;31.30;19.00;;;22.50;99.90;;;;;;10385582;28;20034;-85
2022/08/15 07:20:00;;;;;;;26.67;17.80;;;22.80;99.90;;;;;;10373737;28;20065;-86
2022/08/15 07:25:01;;;;;;;19.35;9.30;;;23.00;99.90;;;;;;10395314;28;20155;-85
2022/08/15 07:30:20;;;;;;;17.98;9.57;;;23.50;99.90;;;;;;10400675;28;20449;-83
2022/08/15 07:35:26;;;;;;;16.92;9.60;;;23.70;99.90;;;;;;10381443;28;20034;-84
2022/08/15 07:40:46;;;;;;;20.70;10.07;;;23.80;99.90;;;;;;10380652;28;20434;-84
2022/08/15 07:45:47;;;;;;;16.02;8.50;;;24.10;99.90;;;;;;10378311;28;20033;-83
2022/08/15 07:51:14;;;;;;;11.70;7.25;;;24.40;99.90;;;;;;10391428;28;20072;-83
2022/08/15 07:56:16;;;;;;;15.00;7.07;;;24.70;99.90;;;;;;10409107;28;20507;-83
2022/08/15 08:01:28;;;;;;;19.02;8.27;;;25.00;99.90;;;;;;10405008;28;20473;-83
2022/08/15 08:06:36;;;;;;;17.77;10.75;;;25.40;99.90;;;;;;10403845;28;20104;-82
2022/08/15 08:11:57;;;;;;;19.17;11.50;;;25.70;99.90;;;;;;10404828;28;20049;-82
2022/08/15 08:17:32;;;;;;;14.88;10.50;;;25.90;99.90;;;;;;10404493;28;20414;-82
2022/08/15 08:22:50;;;;;;;14.03;8.17;;;26.10;99.90;;;;;;10410502;28;20113;-82
2022/08/15 08:28:06;;;;;;;35.20;31.45;;;26.20;99.90;;;;;;10406355;28;20807;-83
2022/08/15 08:33:44;;;;;;;144.90;94.63;;;26.70;99.90;;;;;;10404601;28;20041;-82
2022/08/15 08:39:00;;;;;;;1503.05;751.97;;;27.00;99.90;;;;;;10399302;28;20509;-82
2022/08/15 08:44:27;;;;;;;12.80;6.70;;;26.70;99.90;;;;;;10402043;28;20183;-82
2022/08/15 08:49:38;;;;;;;15.65;8.93;;;27.00;99.90;;;;;;10402847;28;20037;-81
2022/08/15 08:55:26;;;;;;;25.55;12.00;;;27.00;99.90;;;;;;10404846;28;20041;-84
2022/08/15 09:00:38;;;;;;;18.20;7.75;;;27.00;99.90;;;;;;10366127;28;20033;-82
2022/08/15 09:05:49;;;;;;;12.77;7.05;;;26.80;99.90;;;;;;10398185;28;20076;-82
2022/08/15 09:10:51;;;;;;;13.90;7.43;;;26.50;99.90;;;;;;10399266;28;20061;-82
2022/08/15 09:15:56;;;;;;;14.90;7.72;;;26.60;99.90;;;;;;10406352;28;20026;-83
2022/08/15 09:20:58;;;;;;;13.43;8.25;;;26.70;99.90;;;;;;10406065;28;20113;-84
2022/08/15 09:26:20;;;;;;;12.23;7.05;;;26.60;99.90;;;;;;10407326;28;20034;-85
2022/08/15 09:31:26;;;;;;;9.35;6.15;;;26.30;99.90;;;;;;10402479;28;20052;-85
2022/08/15 09:37:00;;;;;;;13.05;6.55;;;27.00;99.90;;;;;;10395022;28;20393;-84
2022/08/15 09:42:19;;;;;;;696.65;90.70;;;27.60;99.90;;;;;;10402146;28;20037;-85
2022/08/15 09:47:39;;;;;;;19.00;14.70;;;27.40;99.90;;;;;;10407417;28;20424;-84
2022/08/15 09:52:52;;;;;;;22.83;10.90;;;27.70;99.90;;;;;;10401939;28;20041;-84
2022/08/15 09:57:56;;;;;;;14.80;7.00;;;28.20;99.90;;;;;;10399004;28;20103;-84
2022/08/15 10:03:19;;;;;;;16.30;8.95;;;28.00;99.90;;;;;;10399300;28;20033;-83
2022/08/15 10:08:23;;;;;;;16.50;9.10;;;27.70;99.90;;;;;;10406945;28;20095;-84
2022/08/15 10:13:28;;;;;;;15.00;9.33;;;28.20;99.90;;;;;;10398192;28;20505;-84
2022/08/15 10:18:37;;;;;;;18.80;9.07;;;28.70;99.90;;;;;;10386394;28;20017;-84
2022/08/15 10:23:49;;;;;;;18.83;10.55;;;29.00;99.90;;;;;;10374719;28;20033;-86
2022/08/15 10:29:01;;;;;;;19.88;9.18;;;29.30;99.90;;;;;;10396165;28;20445;-85
2022/08/15 10:34:11;;;;;;;19.73;9.48;;;29.50;99.90;;;;;;10389246;28;20049;-81
2022/08/15 10:39:40;;;;;;;13.45;7.00;;;29.50;99.90;;;;;;10401763;28;20017;-84
2022/08/15 10:45:02;;;;;;;13.60;7.72;;;29.40;99.90;;;;;;10401544;28;20035;-86
2022/08/15 10:50:41;;;;;;;14.77;7.53;;;29.80;99.90;;;;;;10391856;28;20103;-83
2022/08/15 10:55:42;;;;;;;16.80;7.78;;;29.80;99.30;;;;;;10384941;28;20060;-85
2022/08/15 11:00:57;;;;;;;12.55;8.05;;;29.10;99.90;;;;;;10384830;28;20040;-83
2022/08/15 11:06:20;;;;;;;13.65;7.93;;;29.30;99.90;;;;;;10390713;28;20087;-84
2022/08/15 11:11:28;;;;;;;11.48;6.78;;;28.90;97.70;;;;;;10397233;28;20076;-84
2022/08/15 11:33:59;;;;;;;19.65;11.77;;;31.00;94.10;;;;;;10388508;28;20041;-84
2022/08/15 11:39:10;;;;;;;16.33;11.50;;;30.80;92.30;;;;;;10373231;28;20057;-86
2022/08/15 11:44:13;;;;;;;16.77;10.07;;;30.50;96.40;;;;;;10394233;28;20026;-84
2022/08/15 11:49:29;;;;;;;14.75;8.38;;;29.70;95.10;;;;;;10393247;28;20028;-85
2022/08/15 11:54:30;;;;;;;14.82;9.73;;;29.40;95.80;;;;;;10393886;28;20069;-86
2022/08/15 11:59:40;;;;;;;12.18;6.57;;;29.60;95.30;;;;;;10377383;28;20443;-87
2022/08/15 12:04:43;;;;;;;14.27;8.20;;;29.20;93.20;;;;;;10390162;28;20026;-89
2022/08/15 12:09:54;;;;;;;13.77;7.27;;;29.10;95.50;;;;;;10379638;28;20045;-87
2022/08/15 12:15:07;;;;;;;15.07;6.95;;;29.40;95.80;;;;;;10374484;28;20045;-87
2022/08/15 12:20:08;;;;;;;10.30;6.75;;;29.20;95.50;;;;;;10362072;28;20121;-88
2022/08/15 12:25:09;;;;;;;14.32;7.25;;;29.40;92.30;;;;;;10371315;28;20029;-85
2022/08/15 12:30:11;;;;;;;11.77;6.13;;;29.30;91.50;;;;;;10373489;28;20042;-85
2022/08/15 12:35:13;;;;;;;8.88;5.82;;;29.40;92.90;;;;;;10367004;28;20040;-87
2022/08/15 12:40:14;;;;;;;14.98;7.43;;;30.10;94.30;;;;;;10386587;28;20470;-87
2022/08/15 12:45:44;;;;;;;11.32;7.45;;;30.30;91.40;;;;;;10368459;28;20030;-87
2022/08/15 12:50:45;;;;;;;9.30;5.95;;;30.30;91.10;;;;;;10373432;28;20053;-86
2022/08/15 12:55:48;;;;;;;12.50;6.68;;;30.50;91.50;;;;;;10382694;28;20042;-86
2022/08/15 13:07:40;;;;;;;13.05;8.20;;;30.90;88.60;;;;;;10323211;28;20026;-85
2022/08/15 13:12:56;;;;;;;11.27;7.05;;;31.20;88.60;;;;;;10387626;28;20132;-86
2022/08/15 13:17:57;;;;;;;14.45;7.38;;;31.30;86.30;;;;;;10378414;28;20064;-85
2022/08/15 13:59:57;;;;;;;8.23;5.15;;;30.60;85.30;;;;;;12147802;23;20391;-86
2022/08/15 14:23:00;;;;;;;8.50;4.30;;;30.30;82.40;;;;;;10272576;28;20039;-85
2022/08/15 14:33:59;;;;;;;26.15;2.78;;;29.80;78.20;;;;;;11514952;23;20025;-83
2022/08/15 14:57:11;;;;;;;15.82;10.45;;;29.50;78.00;;;;;;10272501;28;20141;-84
2022/08/15 15:20:44;;;;;;;7.18;4.32;;;29.20;79.80;;;;;;10228443;28;20035;-84
2022/08/15 15:25:44;;;;;;;5.97;4.10;;;29.10;80.80;;;;;;10216901;28;20514;-84
2022/08/15 15:30:45;;;;;;;9.02;4.80;;;29.00;82.10;;;;;;10209980;28;20146;-83
2022/08/15 16:11:09;;;;;;;8.85;4.40;;;28.20;82.60;;;;;;11186353;23;20054;-84
2022/08/15 16:16:15;;;;;;;9.07;3.50;;;28.20;83.10;;;;;;10320817;28;20483;-85
2022/08/15 16:21:24;;;;;;;8.85;5.25;;;28.20;81.90;;;;;;10297236;28;20517;-87
2022/08/15 16:32:58;;;;;;;9.25;6.32;;;28.20;79.60;;;;;;10120393;29;20052;-85
2022/08/15 16:38:51;;;;;;;9.88;6.80;;;28.10;80.80;;;;;;10113782;29;20687;-85
2022/08/15 16:50:15;;;;;;;4.20;2.75;;;27.80;82.10;;;;;;10281401;28;20410;-85
2022/08/15 17:14:13;;;;;;;9.27;5.03;;;27.10;86.40;;;;;;10310214;28;20047;-84
2022/08/15 17:19:20;;;;;;;8.80;4.70;;;26.80;87.90;;;;;;10281655;28;20065;-83
2022/08/15 17:24:45;;;;;;;14.55;5.90;;;26.60;88.00;;;;;;10267007;28;20042;-86
2022/08/15 17:30:07;;;;;;;12.32;6.32;;;26.40;88.90;;;;;;10294408;28;20035;-86
2022/08/15 17:35:09;;;;;;;11.02;6.45;;;26.30;90.10;;;;;;10288725;28;20099;-85
2022/08/15 17:40:15;;;;;;;13.63;7.85;;;26.10;90.30;;;;;;10263449;28;20443;-86
2022/08/15 17:45:28;;;;;;;12.15;7.70;;;26.00;90.60;;;;;;10280894;28;20027;-83
2022/08/15 17:50:38;;;;;;;16.23;9.55;;;25.80;91.10;;;;;;10263767;28;20058;-83
2022/08/15 17:55:45;;;;;;;13.63;9.30;;;25.50;91.60;;;;;;10282045;28;20037;-84
2022/08/15 18:01:33;;;;;;;;;;;;;;;;;;;;;
2022/08/15 18:07:22;;;;;;;11.82;6.75;;;24.70;93.70;;;;;;10244332;28;20077;-85
2022/08/15 18:12:56;;;;;;;12.60;7.05;;;24.40;94.90;;;;;;10244600;28;20474;-86
2022/08/15 18:18:04;;;;;;;17.42;6.93;;;24.20;95.20;;;;;;10262453;28;20109;-86
2022/08/15 18:23:19;;;;;;;8.13;4.75;;;23.90;96.50;;;;;;10299502;28;20061;-83
2022/08/15 18:28:30;;;;;;;7.47;3.90;;;23.70;98.30;;;;;;10283035;28;20491;-85
2022/08/15 18:33:35;;;;;;;12.57;6.10;;;23.50;99.50;;;;;;10295451;28;20041;-86
2022/08/15 18:41:05;;;;;;;;;;;23.40;99.90;;;;;;10271214;28;20036;-85
2022/08/15 18:44:20;;;;;;;8.43;5.85;;;23.30;99.90;;;;;;10288547;28;20775;-84
2022/08/15 18:49:21;;;;;;;8.43;5.05;;;23.00;99.90;;;;;;10288405;28;20641;-82
2022/08/15 18:54:36;;;;;;;11.88;6.28;;;22.90;99.90;;;;;;10291595;28;20038;-83
2022/08/15 18:59:46;;;;;;;14.37;6.67;;;22.80;99.90;;;;;;10286881;28;20166;-83
2022/08/15 19:04:51;;;;;;;12.48;5.95;;;22.70;99.90;;;;;;10289645;28;20430;-80
2022/08/15 19:09:59;;;;;;;15.18;7.57;;;22.50;99.90;;;;;;10273121;28;20174;-81
2022/08/15 19:15:03;;;;;;;153.63;124.15;;;22.50;99.90;;;;;;10281793;28;20494;-82
2022/08/15 19:20:09;;;;;;;16.27;12.02;;;22.40;99.90;;;;;;10275726;28;20035;-83
2022/08/15 19:25:10;;;;;;;12.50;6.53;;;22.40;99.90;;;;;;10274770;28;20022;-83
2022/08/15 19:30:17;;;;;;;14.02;6.65;;;22.30;99.90;;;;;;10305822;28;20439;-83
2022/08/15 19:35:24;;;;;;;9.95;4.60;;;22.20;99.90;;;;;;10286465;28;20042;-82
2022/08/15 19:40:55;;;;;;;9.00;4.97;;;22.10;99.90;;;;;;10291019;28;20031;-81
2022/08/15 19:46:02;;;;;;;14.88;7.50;;;22.10;99.90;;;;;;10286395;28;20104;-83
2022/08/15 19:51:22;;;;;;;19.30;8.65;;;22.10;99.90;;;;;;10290509;28;20178;-82
2022/08/15 19:56:36;;;;;;;14.35;8.30;;;22.00;99.90;;;;;;10286201;28;20086;-82
2022/08/15 20:02:04;;;;;;;14.67;8.10;;;21.90;99.90;;;;;;10290094;28;20533;-82
2022/08/15 20:07:23;;;;;;;12.68;7.10;;;21.80;99.90;;;;;;10295161;28;20397;-84
2022/08/15 20:12:51;;;;;;;17.13;9.27;;;21.90;99.90;;;;;;10288410;28;20072;-81
2022/08/15 20:18:06;;;;;;;13.98;6.88;;;21.80;99.90;;;;;;10286563;28;20113;-83
2022/08/15 20:23:25;;;;;;;12.13;4.80;;;21.80;99.90;;;;;;10286510;28;20031;-83
2022/08/15 20:28:33;;;;;;;8.50;4.25;;;21.80;99.90;;;;;;10292304;28;20030;-83
2022/08/15 20:33:36;;;;;;;10.55;4.85;;;21.80;99.90;;;;;;10283683;28;20046;-83
2022/08/15 20:38:43;;;;;;;10.52;4.57;;;21.60;99.90;;;;;;10288138;28;20029;-83
2022/08/15 20:43:54;;;;;;;11.60;9.07;;;21.50;99.90;;;;;;10288583;28;20019;-83
2022/08/15 20:49:03;;;;;;;14.48;8.10;;;21.50;99.90;;;;;;10280635;28;20152;-83
2022/08/15 20:54:05;;;;;;;17.73;11.55;;;21.30;99.90;;;;;;10268724;28;20039;-83
2022/08/15 20:59:11;;;;;;;22.55;11.82;;;21.20;99.90;;;;;;10273956;28;20034;-83
2022/08/15 21:04:11;;;;;;;17.52;10.30;;;21.20;99.90;;;;;;10263140;28;20050;-83
2022/08/15 21:09:16;;;;;;;13.68;8.80;;;21.10;99.90;;;;;;10255666;28;20074;-82
2022/08/15 21:14:31;;;;;;;15.70;9.10;;;21.10;99.90;;;;;;10266271;28;20050;-83
2022/08/15 21:19:57;;;;;;;11.23;6.70;;;21.00;99.90;;;;;;10271607;28;20555;-83
2022/08/15 21:24:57;;;;;;;;;;;20.90;99.90;;;;;;10253156;28;20031;-83
2022/08/15 21:35:55;;;;;;;9.10;5.38;;;20.80;99.90;;;;;;10299582;28;20047;-83
2022/08/15 21:40:56;;;;;;;13.82;7.50;;;20.70;99.90;;;;;;10264246;28;20023;-82
2022/08/15 21:45:58;;;;;;;16.10;8.88;;;20.80;99.90;;;;;;10306061;28;20045;-83
2022/08/15 21:51:21;;;;;;;13.07;7.13;;;20.80;99.90;;;;;;10283616;28;20100;-83
2022/08/15 21:56:24;;;;;;;6.15;3.40;;;20.70;99.90;;;;;;10308213;28;20042;-83
2022/08/15 22:01:48;;;;;;;2.47;1.75;;;20.70;99.90;;;;;;10283860;28;20033;-82
2022/08/15 22:06:49;;;;;;;15.65;7.07;;;20.70;99.90;;;;;;10292193;28;20062;-82
2022/08/15 22:11:51;;;;;;;13.88;7.15;;;20.70;99.90;;;;;;10286352;28;20498;-82
2022/08/15 22:16:51;;;;;;;9.65;5.47;;;20.60;99.90;;;;;;10266261;28;20038;-82
2022/08/15 22:21:53;;;;;;;12.57;5.75;;;20.50;99.90;;;;;;10267399;28;20438;-83
2022/08/15 22:26:53;;;;;;;15.57;11.52;;;20.50;99.90;;;;;;10285434;28;20061;-82
2022/08/15 22:31:56;;;;;;;56.15;46.03;;;20.40;99.90;;;;;;10277443;28;20122;-84
2022/08/15 22:36:57;;;;;;;15.23;11.10;;;20.30;99.90;;;;;;10276748;28;20126;-84
2022/08/15 22:42:02;;;;;;;15.48;11.70;;;20.30;99.90;;;;;;10275873;28;20579;-82
2022/08/15 22:47:05;;;;;;;19.70;12.43;;;20.40;99.90;;;;;;10282249;28;20026;-82
2022/08/15 22:52:10;;;;;;;18.77;12.38;;;20.50;99.90;;;;;;10280282;28;20498;-81
2022/08/15 22:57:16;;;;;;;17.98;13.43;;;20.50;99.90;;;;;;10277442;28;20030;-82
2022/08/15 23:02:21;;;;;;;18.33;12.80;;;20.50;99.90;;;;;;10282873;28;20038;-81
2022/08/15 23:07:37;;;;;;;22.70;16.45;;;20.40;99.90;;;;;;10285176;28;20109;-82
2022/08/15 23:12:39;;;;;;;23.35;15.95;;;20.20;99.90;;;;;;10273332;28;20045;-81
2022/08/15 23:17:49;;;;;;;26.55;16.77;;;20.10;99.90;;;;;;10284800;28;20696;-81
2022/08/15 23:22:51;;;;;;;22.67;16.08;;;20.10;99.90;;;;;;10287266;28;20027;-81
2022/08/15 23:27:53;;;;;;;23.85;17.30;;;20.00;99.90;;;;;;10296407;28;20035;-81
2022/08/15 23:32:56;;;;;;;21.42;15.73;;;19.90;99.90;;;;;;10304205;28;20065;-80
2022/08/15 23:37:59;;;;;;;21.38;16.08;;;19.90;99.90;;;;;;10273069;28;20042;-81
2022/08/15 23:43:02;;;;;;;27.83;17.77;;;19.90;99.90;;;;;;10276259;28;20050;-81
2022/08/15 23:48:04;;;;;;;24.13;17.52;;;19.70;99.90;;;;;;10261907;28;20097;-79
2022/08/15 23:53:05;;;;;;;22.52;16.42;;;19.70;99.90;;;;;;10312602;28;20491;-81
2022/08/15 23:58:07;;;;;;;23.23;16.27;;;19.60;99.90;;;;;;10289839;28;20031;-80
